createdAt,value
2022-09-24T00:02:23.953Z,76.00
2022-09-24T00:04:50.573Z,76.20
2022-09-24T00:07:17.144Z,76.70
2022-09-24T00:09:43.742Z,76.30
2022-09-24T00:12:13.117Z,76.20
2022-09-24T00:14:39.794Z,76.10
2022-09-24T00:17:06.351Z,76.50
2022-09-24T00:19:33.124Z,76.00
2022-09-24T00:21:59.778Z,75.60
2022-09-24T00:24:44.769Z,76.00
2022-09-24T00:27:11.615Z,76.50
2022-09-24T00:29:38.212Z,77.00
2022-09-24T00:32:05.533Z,77.00
2022-09-24T00:34:32.164Z,76.60
2022-09-24T00:36:59.156Z,76.90
2022-09-24T00:39:25.775Z,76.50
2022-09-24T00:41:52.441Z,76.60
2022-09-24T00:44:37.967Z,76.50
2022-09-24T00:47:04.851Z,76.50
2022-09-24T00:49:31.857Z,76.90
2022-09-24T00:51:58.453Z,77.10
2022-09-24T00:54:28.601Z,77.10
2022-09-24T00:56:56.555Z,76.60
2022-09-24T00:59:23.850Z,76.90
2022-09-24T01:01:59.380Z,77.50
2022-09-24T01:04:27.366Z,77.80
2022-09-24T01:06:54.337Z,77.90
2022-09-24T01:09:22.161Z,77.60
2022-09-24T01:11:57.615Z,77.70
2022-09-24T01:14:43.677Z,77.50
2022-09-24T01:17:18.493Z,77.60
2022-09-24T01:20:03.907Z,77.60
2022-09-24T01:22:50.736Z,77.80
2022-09-24T01:25:26.624Z,77.60
2022-09-24T01:27:59.026Z,78.00
2022-09-24T01:30:25.980Z,78.20
2022-09-24T01:32:55.423Z,77.80
2022-09-24T01:35:39.214Z,77.20
2022-09-24T01:38:14.152Z,77.50
2022-09-24T01:40:42.345Z,77.60
2022-09-24T01:43:10.100Z,77.70
2022-09-24T01:45:38.140Z,77.90
2022-09-24T01:48:05.195Z,78.00
2022-09-24T01:50:40.428Z,77.70
2022-09-24T01:53:26.979Z,77.90
2022-09-24T01:55:57.671Z,78.30
2022-09-24T01:58:28.000Z,78.00
2022-09-24T02:00:59.941Z,78.30
2022-09-24T02:03:29.731Z,78.70
2022-09-24T02:06:03.657Z,78.90
2022-09-24T02:08:33.234Z,79.00
2022-09-24T02:11:02.652Z,78.70
2022-09-24T02:13:32.063Z,78.80
2022-09-24T02:16:00.677Z,78.60
2022-09-24T02:18:29.389Z,79.50
2022-09-24T02:20:56.201Z,79.10
2022-09-24T02:23:23.090Z,78.80
2022-09-24T02:25:52.278Z,79.20
2022-09-24T02:28:19.406Z,79.00
2022-09-24T02:30:51.520Z,78.80
2022-09-24T02:33:37.060Z,79.00
2022-09-24T02:36:03.839Z,78.80
2022-09-24T02:38:30.425Z,79.10
2022-09-24T02:40:57.328Z,79.10
2022-09-24T02:43:24.283Z,78.80
2022-09-24T02:45:50.885Z,80.00
2022-09-24T02:48:17.690Z,79.80
2022-09-24T02:50:44.245Z,80.20
2022-09-24T02:53:10.819Z,79.90
2022-09-24T02:55:37.430Z,79.70
2022-09-24T02:58:03.996Z,80.10
2022-09-24T03:00:30.557Z,80.10
2022-09-24T03:02:57.146Z,80.80
2022-09-24T03:05:23.745Z,80.70
2022-09-24T03:07:50.342Z,80.50
2022-09-24T03:10:17.049Z,80.70
2022-09-24T03:12:43.758Z,80.90
2022-09-24T03:15:10.766Z,80.50
2022-09-24T03:17:37.330Z,81.10
2022-09-24T03:20:04.103Z,80.90
2022-09-24T03:22:30.664Z,80.80
2022-09-24T03:24:57.297Z,80.70
2022-09-24T03:27:23.859Z,80.80
2022-09-24T03:30:09.040Z,80.80
2022-09-24T03:32:35.842Z,80.90
2022-09-24T03:35:02.709Z,81.10
2022-09-24T03:37:29.325Z,81.20
2022-09-24T03:39:55.950Z,81.10
2022-09-24T03:42:22.506Z,81.00
2022-09-24T03:44:49.064Z,80.80
2022-09-24T03:47:15.631Z,81.00
2022-09-24T03:49:42.361Z,81.20
2022-09-24T03:52:09.002Z,81.00
2022-09-24T03:54:35.602Z,81.40
2022-09-24T03:57:02.152Z,81.10
2022-09-24T03:59:28.721Z,81.50
2022-09-24T04:01:55.464Z,81.20
2022-09-24T04:04:22.074Z,81.00
2022-09-24T04:06:49.849Z,81.00
2022-09-24T04:09:16.600Z,80.40
2022-09-24T04:11:44.726Z,81.30
2022-09-24T04:14:11.330Z,81.30
2022-09-24T04:16:38.215Z,81.40
2022-09-24T04:19:05.026Z,81.90
2022-09-24T04:21:31.899Z,81.50
2022-09-24T04:23:58.627Z,81.30
2022-09-24T04:26:25.811Z,81.90
2022-09-24T04:28:52.467Z,82.90
2022-09-24T04:31:19.921Z,82.90
2022-09-24T04:33:46.768Z,82.60
2022-09-24T04:36:13.505Z,82.60
2022-09-24T04:38:40.233Z,82.30
2022-09-24T04:41:07.728Z,82.00
2022-09-24T04:43:34.784Z,81.70
2022-09-24T04:46:02.084Z,81.50
2022-09-24T04:48:30.026Z,81.50
2022-09-24T04:50:57.609Z,81.20
2022-09-24T04:53:24.641Z,81.20
2022-09-24T04:55:51.345Z,81.00
2022-09-24T04:58:18.038Z,81.00
2022-09-24T05:00:44.822Z,81.50
2022-09-24T05:03:11.597Z,81.60
2022-09-24T05:05:38.774Z,81.40
2022-09-24T05:08:05.505Z,81.10
2022-09-24T05:10:33.368Z,81.70
2022-09-24T05:13:00.752Z,81.70
2022-09-24T05:15:27.464Z,81.40
2022-09-24T05:17:54.221Z,81.30
2022-09-24T05:20:21.017Z,80.90
2022-09-24T05:22:49.371Z,81.30
2022-09-24T05:25:17.056Z,81.30
2022-09-24T05:27:47.637Z,81.20
2022-09-24T05:30:14.856Z,81.30
2022-09-24T05:32:41.672Z,81.30
2022-09-24T05:35:09.391Z,81.60
2022-09-24T05:37:36.664Z,81.50
2022-09-24T05:40:24.192Z,81.70
2022-09-24T05:42:51.453Z,81.50
2022-09-24T05:45:18.385Z,81.40
2022-09-24T05:47:45.548Z,81.80
2022-09-24T05:50:12.802Z,82.30
2022-09-24T05:52:42.696Z,82.30
2022-09-24T05:55:10.239Z,82.10
2022-09-24T05:57:37.109Z,81.80
2022-09-24T06:00:04.473Z,82.30
2022-09-24T06:02:38.926Z,82.40
2022-09-24T06:05:05.875Z,81.90
2022-09-24T06:07:32.477Z,81.80
2022-09-24T06:10:02.007Z,81.80
2022-09-24T06:12:28.694Z,81.10
2022-09-24T06:14:55.315Z,81.50
2022-09-24T06:17:22.173Z,81.30
2022-09-24T06:19:48.804Z,81.20
2022-09-24T06:22:15.384Z,80.80
2022-09-24T06:24:42.031Z,81.10
2022-09-24T06:27:08.853Z,81.40
2022-09-24T06:29:35.474Z,81.30
2022-09-24T06:32:02.164Z,81.10
2022-09-24T06:34:28.765Z,81.00
2022-09-24T06:36:56.974Z,81.10
2022-09-24T06:39:24.321Z,80.80
2022-09-24T06:41:51.481Z,80.60
2022-09-24T06:44:19.200Z,81.20
2022-09-24T06:46:45.984Z,81.50
2022-09-24T06:49:12.664Z,81.30
2022-09-24T06:51:39.715Z,81.10
2022-09-24T06:54:06.363Z,80.90
2022-09-24T06:56:33.034Z,81.00
2022-09-24T06:58:59.604Z,80.90
2022-09-24T07:01:26.322Z,80.60
2022-09-24T07:03:53.000Z,80.70
2022-09-24T07:06:19.722Z,80.90
2022-09-24T07:08:50.042Z,80.60
2022-09-24T07:11:16.630Z,81.00
2022-09-24T07:13:43.190Z,81.00
2022-09-24T07:16:09.825Z,81.00
2022-09-24T07:18:38.612Z,81.60
2022-09-24T07:21:05.240Z,81.90
2022-09-24T07:23:31.834Z,82.10
2022-09-24T07:25:58.460Z,82.60
2022-09-24T07:28:25.190Z,83.20
2022-09-24T07:30:58.952Z,83.70
2022-09-24T07:33:25.620Z,84.30
2022-09-24T07:35:52.286Z,84.70
2022-09-24T07:38:19.051Z,84.80
2022-09-24T07:40:45.894Z,84.50
2022-09-24T07:43:14.033Z,85.10
2022-09-24T07:45:41.672Z,85.20
2022-09-24T07:48:09.773Z,85.40
2022-09-24T07:50:39.246Z,85.90
2022-09-24T07:53:06.483Z,85.90
2022-09-24T07:55:39.424Z,86.20
2022-09-24T07:58:06.888Z,86.50
2022-09-24T08:00:33.496Z,86.80
2022-09-24T08:03:01.757Z,87.30
2022-09-24T08:05:28.375Z,87.60
2022-09-24T08:07:56.049Z,87.30
2022-09-24T08:10:23.524Z,87.20
2022-09-24T08:12:50.417Z,86.70
2022-09-24T08:15:17.231Z,86.50
2022-09-24T08:17:43.833Z,86.60
2022-09-24T08:20:10.715Z,86.30
2022-09-24T08:22:37.312Z,86.00
2022-09-24T08:25:04.688Z,85.80
2022-09-24T08:27:32.817Z,85.80
2022-09-24T08:30:00.492Z,85.70
2022-09-24T08:32:27.607Z,85.40
2022-09-24T08:34:54.168Z,85.50
2022-09-24T08:37:20.753Z,85.60
2022-09-24T08:39:47.521Z,85.70
2022-09-24T08:42:23.233Z,85.80
2022-09-24T08:45:09.588Z,85.00
2022-09-24T08:47:48.688Z,85.30
2022-09-24T08:50:24.158Z,85.10
2022-09-24T08:52:58.718Z,84.80
2022-09-24T08:55:34.576Z,84.90
2022-09-24T08:58:01.128Z,84.00
2022-09-24T09:00:31.621Z,84.10
2022-09-24T09:03:05.052Z,84.50
2022-09-24T09:05:31.654Z,83.20
2022-09-24T09:08:02.832Z,84.30
2022-09-24T09:10:35.610Z,83.90
2022-09-24T09:13:09.658Z,83.70
2022-09-24T09:15:39.338Z,84.50
2022-09-24T09:18:06.149Z,83.20
2022-09-24T09:20:36.629Z,82.80
2022-09-24T09:23:06.210Z,82.70
2022-09-24T09:25:35.936Z,82.30
2022-09-24T09:28:16.648Z,83.30
2022-09-24T09:30:46.242Z,82.70
2022-09-24T09:33:22.441Z,83.10
2022-09-24T09:36:01.217Z,83.50
2022-09-24T09:38:38.975Z,83.00
2022-09-24T09:41:32.018Z,82.90
2022-09-24T09:44:09.362Z,82.80
2022-09-24T09:46:38.047Z,83.30
2022-09-24T09:49:06.637Z,82.70
2022-09-24T09:51:38.404Z,83.20
2022-09-24T09:54:05.199Z,83.20
2022-09-24T09:56:35.027Z,82.90
2022-09-24T09:59:07.118Z,82.60
2022-09-24T10:01:34.981Z,82.30
2022-09-24T10:04:03.090Z,83.00
2022-09-24T10:06:31.793Z,82.20
2022-09-24T10:09:16.250Z,82.30
2022-09-24T10:11:42.836Z,80.60
2022-09-24T10:14:10.646Z,80.50
2022-09-24T10:16:41.259Z,80.00
2022-09-24T10:19:19.779Z,79.60
2022-09-24T10:21:46.503Z,80.30
2022-09-24T10:24:18.998Z,79.30
2022-09-24T10:26:46.618Z,79.90
2022-09-24T10:29:34.411Z,80.00
2022-09-24T10:32:01.597Z,78.30
2022-09-24T10:34:28.912Z,79.90
2022-09-24T10:36:59.897Z,78.90
2022-09-24T10:39:26.694Z,78.50
2022-09-24T10:41:54.406Z,78.60
2022-09-24T10:44:21.442Z,78.10
2022-09-24T10:47:04.610Z,79.10
2022-09-24T10:49:45.381Z,77.80
2022-09-24T10:52:30.797Z,77.80
2022-09-24T10:55:12.954Z,78.30
2022-09-24T10:57:54.808Z,78.20
2022-09-24T11:00:22.545Z,77.70
2022-09-24T11:02:49.236Z,78.40
2022-09-24T11:05:22.902Z,78.40
2022-09-24T11:07:52.481Z,78.20
2022-09-24T11:10:19.051Z,77.80
2022-09-24T11:12:58.001Z,77.60
2022-09-24T11:15:27.625Z,77.70
2022-09-24T11:18:09.985Z,78.40
2022-09-24T11:20:38.031Z,78.20
2022-09-24T11:23:04.573Z,76.80
2022-09-24T11:25:39.145Z,77.80
2022-09-24T11:28:35.521Z,77.00
2022-09-24T11:31:20.860Z,76.70
2022-09-24T11:33:50.653Z,77.10
2022-09-24T11:36:31.575Z,75.80
2022-09-24T11:39:10.076Z,76.60
2022-09-24T11:41:42.954Z,76.20
2022-09-24T11:44:18.707Z,76.00
2022-09-24T11:47:04.312Z,75.90
2022-09-24T11:49:36.308Z,74.70
2022-09-24T11:52:08.802Z,74.20
2022-09-24T11:54:38.446Z,74.80
2022-09-24T11:57:11.428Z,75.60
2022-09-24T11:59:44.146Z,74.90
2022-09-24T12:02:21.467Z,74.70
2022-09-24T12:04:48.058Z,73.80
2022-09-24T12:07:16.933Z,74.70
2022-09-24T12:09:47.751Z,74.00
2022-09-24T12:12:18.356Z,72.70
2022-09-24T12:14:49.068Z,74.10
2022-09-24T12:17:25.399Z,71.80
2022-09-24T12:20:00.361Z,71.70
2022-09-24T12:22:27.766Z,74.10
2022-09-24T12:24:56.929Z,73.00
2022-09-24T12:27:37.294Z,72.80
2022-09-24T12:30:31.520Z,72.20
2022-09-24T12:32:59.061Z,72.10
2022-09-24T12:35:28.717Z,72.50
2022-09-24T12:37:59.334Z,72.20
2022-09-24T12:40:25.957Z,73.10
2022-09-24T12:42:55.211Z,72.60
2022-09-24T12:45:22.624Z,73.50
2022-09-24T12:47:51.792Z,73.30
2022-09-24T12:50:23.805Z,73.00
2022-09-24T12:52:50.487Z,72.60
2022-09-24T12:55:21.911Z,72.60
2022-09-24T12:57:56.091Z,72.50
2022-09-24T13:00:31.848Z,73.40
2022-09-24T13:02:58.756Z,73.00
2022-09-24T13:05:28.186Z,72.00
2022-09-24T13:08:24.587Z,72.40
2022-09-24T13:10:54.863Z,72.10
2022-09-24T13:13:23.763Z,72.40
2022-09-24T13:15:59.215Z,72.60
2022-09-24T13:18:25.942Z,72.80
2022-09-24T13:21:18.842Z,69.90
2022-09-24T13:23:46.786Z,72.80
2022-09-24T13:26:19.837Z,72.70
2022-09-24T13:29:03.312Z,74.50
2022-09-24T13:31:33.352Z,74.40
2022-09-24T13:34:11.603Z,74.10
2022-09-24T13:36:40.254Z,73.10
2022-09-24T13:39:16.141Z,74.20
2022-09-24T13:41:53.258Z,73.20
2022-09-24T13:44:42.971Z,73.80
2022-09-24T13:47:33.020Z,73.70
2022-09-24T13:50:14.335Z,72.50
2022-09-24T13:52:44.204Z,73.60
2022-09-24T13:55:43.425Z,73.20
2022-09-24T13:58:28.842Z,72.90
2022-09-24T14:00:56.521Z,73.70
2022-09-24T14:03:28.569Z,73.60
2022-09-24T14:05:57.178Z,73.00
2022-09-24T14:08:24.892Z,74.30
2022-09-24T14:10:51.930Z,73.40
2022-09-24T14:13:22.574Z,73.10
2022-09-24T14:15:50.469Z,74.40
2022-09-24T14:18:17.342Z,74.80
2022-09-24T14:20:45.034Z,73.60
2022-09-24T14:23:18.512Z,74.50
2022-09-24T14:25:45.989Z,74.20
2022-09-24T14:28:13.325Z,74.70
2022-09-24T14:30:48.038Z,75.10
2022-09-24T14:33:15.928Z,74.70
2022-09-24T14:35:46.017Z,75.30
2022-09-24T14:38:14.128Z,75.60
2022-09-24T14:40:40.689Z,76.10
2022-09-24T14:43:14.379Z,75.10
2022-09-24T14:45:40.940Z,75.20
2022-09-24T14:48:28.605Z,75.30
2022-09-24T14:50:55.427Z,75.10
2022-09-24T14:53:22.230Z,76.70
2022-09-24T14:55:49.821Z,76.90
2022-09-24T14:58:28.595Z,77.40
2022-09-24T15:01:02.563Z,76.90
2022-09-24T15:03:49.065Z,77.40
2022-09-24T15:06:19.173Z,76.60
2022-09-24T15:08:52.962Z,76.80
2022-09-24T15:11:19.590Z,76.00
2022-09-24T15:13:46.181Z,76.70
2022-09-24T15:16:28.244Z,77.30
2022-09-24T15:18:59.390Z,77.30
2022-09-24T15:21:27.742Z,77.30
2022-09-24T15:23:55.369Z,76.10
2022-09-24T15:26:22.534Z,76.20
2022-09-24T15:28:49.131Z,76.50
2022-09-24T15:31:15.799Z,76.10
2022-09-24T15:33:42.410Z,75.70
2022-09-24T15:36:10.006Z,76.10
2022-09-24T15:38:36.594Z,75.60
2022-09-24T15:41:03.155Z,75.70
2022-09-24T15:43:29.760Z,75.30
2022-09-24T15:45:56.332Z,75.80
2022-09-24T15:48:22.951Z,76.10
2022-09-24T15:50:51.578Z,75.90
2022-09-24T15:53:20.212Z,76.40
2022-09-24T15:55:49.431Z,76.50
2022-09-24T15:58:19.493Z,77.60
2022-09-24T16:00:46.531Z,77.70
2022-09-24T16:03:20.980Z,78.00
2022-09-24T16:05:48.023Z,78.00
2022-09-24T16:08:14.991Z,77.10
2022-09-24T16:10:42.051Z,76.90
2022-09-24T16:13:09.625Z,76.70
2022-09-24T16:15:36.296Z,76.50
2022-09-24T16:18:02.881Z,77.10
2022-09-24T16:20:29.509Z,77.80
2022-09-24T16:22:56.084Z,78.20
2022-09-24T16:25:22.909Z,78.40
2022-09-24T16:27:50.853Z,78.40
2022-09-24T16:30:17.587Z,78.40
2022-09-24T16:32:44.245Z,78.90
2022-09-24T16:35:11.202Z,78.90
2022-09-24T16:37:37.777Z,79.30
2022-09-24T16:40:04.726Z,80.00
2022-09-24T16:42:31.343Z,80.50
2022-09-24T16:44:57.921Z,80.10
2022-09-24T16:47:24.961Z,80.30
2022-09-24T16:49:51.606Z,79.90
2022-09-24T16:52:18.234Z,80.30
2022-09-24T16:54:44.825Z,80.60
2022-09-24T16:57:11.442Z,80.90
2022-09-24T16:59:38.193Z,81.00
2022-09-24T17:02:04.945Z,81.10
2022-09-24T17:04:31.887Z,81.00
2022-09-24T17:06:58.474Z,81.40
2022-09-24T17:09:43.992Z,81.50
2022-09-24T17:12:11.029Z,81.80
2022-09-24T17:14:38.046Z,81.90
2022-09-24T17:17:05.349Z,81.90
2022-09-24T17:19:32.134Z,81.90
2022-09-24T17:21:59.009Z,82.00
2022-09-24T17:24:25.772Z,82.00
2022-09-24T17:26:54.145Z,82.00
2022-09-24T17:29:22.439Z,82.20
2022-09-24T17:31:49.293Z,82.40
2022-09-24T17:34:16.456Z,82.50
2022-09-24T17:36:43.110Z,82.50
2022-09-24T17:39:11.594Z,82.60
2022-09-24T17:41:38.219Z,82.70
2022-09-24T17:44:04.805Z,82.80
2022-09-24T17:46:31.942Z,82.90
2022-09-24T17:48:59.624Z,82.70
2022-09-24T17:51:27.649Z,83.10
2022-09-24T17:53:55.178Z,83.00
2022-09-24T17:56:23.135Z,82.90
2022-09-24T17:58:50.397Z,83.00
2022-09-24T18:01:18.733Z,83.00
2022-09-24T18:03:45.645Z,83.00
2022-09-24T18:06:13.324Z,83.00
2022-09-24T18:08:41.210Z,83.20
2022-09-24T18:11:09.397Z,83.30
2022-09-24T18:13:35.955Z,83.40
2022-09-24T18:16:07.091Z,83.50
2022-09-24T18:18:34.077Z,83.70
2022-09-24T18:21:01.499Z,83.90
2022-09-24T18:23:28.728Z,83.90
2022-09-24T18:25:56.266Z,83.90
2022-09-24T18:28:23.384Z,83.90
2022-09-24T18:30:50.072Z,83.90
2022-09-24T18:33:16.749Z,84.20
2022-09-24T18:35:43.819Z,83.80
2022-09-24T18:38:10.386Z,83.80
2022-09-24T18:40:37.831Z,83.70
2022-09-24T18:43:04.454Z,84.10
2022-09-24T18:45:31.050Z,84.60
2022-09-24T18:47:57.675Z,84.70
2022-09-24T18:50:25.535Z,85.00
2022-09-24T18:52:52.685Z,84.90
2022-09-24T18:55:19.270Z,84.90
2022-09-24T18:57:45.899Z,84.70
2022-09-24T19:00:32.673Z,84.70
2022-09-24T19:02:59.792Z,84.50
2022-09-24T19:05:26.523Z,84.40
2022-09-24T19:07:54.086Z,84.50
2022-09-24T19:10:20.700Z,84.50
2022-09-24T19:12:47.335Z,84.60
2022-09-24T19:15:14.002Z,84.40
2022-09-24T19:17:40.560Z,84.30
2022-09-24T19:20:07.581Z,84.30
2022-09-24T19:22:34.169Z,83.60
2022-09-24T19:25:00.726Z,83.50
2022-09-24T19:27:27.312Z,84.50
2022-09-24T19:29:53.942Z,84.60
2022-09-24T19:32:20.529Z,84.60
2022-09-24T19:34:47.233Z,84.70
2022-09-24T19:37:13.820Z,84.60
2022-09-24T19:39:40.390Z,84.50
2022-09-24T19:42:07.281Z,84.00
2022-09-24T19:44:34.589Z,84.50
2022-09-24T19:47:01.166Z,84.30
2022-09-24T19:49:27.911Z,84.10
2022-09-24T19:51:54.477Z,84.20
2022-09-24T19:54:21.044Z,83.10
2022-09-24T19:56:47.911Z,81.50
2022-09-24T19:59:16.243Z,82.60
2022-09-24T20:01:43.099Z,83.40
2022-09-24T20:04:10.016Z,83.10
2022-09-24T20:06:37.318Z,83.30
2022-09-24T20:09:04.183Z,83.60
2022-09-24T20:11:32.643Z,83.40
2022-09-24T20:14:00.354Z,83.60
2022-09-24T20:16:27.419Z,83.90
2022-09-24T20:18:57.585Z,84.20
2022-09-24T20:21:28.457Z,84.60
2022-09-24T20:23:56.017Z,84.50
2022-09-24T20:26:41.480Z,85.00
2022-09-24T20:29:12.178Z,85.50
2022-09-24T20:31:42.706Z,85.50
2022-09-24T20:34:09.428Z,85.10
2022-09-24T20:36:36.377Z,85.60
2022-09-24T20:39:03.882Z,85.80
2022-09-24T20:41:30.580Z,85.80
2022-09-24T20:43:57.172Z,85.30
2022-09-24T20:46:25.271Z,83.70
2022-09-24T20:48:52.585Z,84.20
2022-09-24T20:51:19.896Z,83.90
2022-09-24T20:53:46.891Z,84.60
2022-09-24T20:56:13.677Z,85.90
2022-09-24T20:58:40.550Z,86.30
2022-09-24T21:01:08.097Z,87.50
2022-09-24T21:03:50.497Z,86.60
2022-09-24T21:06:18.232Z,87.00
2022-09-24T21:08:45.790Z,86.70
2022-09-24T21:11:13.770Z,86.90
2022-09-24T21:13:41.457Z,87.60
2022-09-24T21:16:09.433Z,87.00
2022-09-24T21:18:41.161Z,87.30
2022-09-24T21:21:09.054Z,87.70
2022-09-24T21:23:37.931Z,87.10
2022-09-24T21:26:20.867Z,87.20
2022-09-24T21:28:48.496Z,86.70
2022-09-24T21:31:16.097Z,87.10
2022-09-24T21:33:46.634Z,86.60
2022-09-24T21:36:18.451Z,86.50
2022-09-24T21:38:54.156Z,86.60
2022-09-24T21:41:24.766Z,86.60
2022-09-24T21:43:53.337Z,86.70
2022-09-24T21:46:19.991Z,86.80
2022-09-24T21:48:46.648Z,86.80
2022-09-24T21:51:14.025Z,86.20
2022-09-24T21:53:40.653Z,86.00
2022-09-24T21:56:07.358Z,85.60
2022-09-24T21:58:33.980Z,85.30
2022-09-24T22:01:04.622Z,85.10
2022-09-24T22:03:32.000Z,85.70
2022-09-24T22:06:03.237Z,86.20
2022-09-24T22:08:31.684Z,85.90
2022-09-24T22:11:03.706Z,85.30
2022-09-24T22:13:31.309Z,82.20
2022-09-24T22:15:59.786Z,81.30
2022-09-24T22:18:27.711Z,83.40
2022-09-24T22:20:55.107Z,84.30
2022-09-24T22:23:21.742Z,84.70
2022-09-24T22:25:53.538Z,84.90
2022-09-24T22:28:25.242Z,83.60
2022-09-24T22:30:53.394Z,84.80
2022-09-24T22:33:38.930Z,85.80
2022-09-24T22:36:05.690Z,85.70
2022-09-24T22:38:32.576Z,84.90
2022-09-24T22:40:59.912Z,87.40
2022-09-24T22:43:28.020Z,87.50
2022-09-24T22:46:02.128Z,86.80
2022-09-24T22:48:28.848Z,87.40
2022-09-24T22:50:55.459Z,87.20
2022-09-24T22:53:22.246Z,87.30
2022-09-24T22:55:52.442Z,85.80
2022-09-24T22:58:19.453Z,85.90
2022-09-24T23:00:46.042Z,86.20
2022-09-24T23:03:12.604Z,87.20
2022-09-24T23:05:39.197Z,87.90
2022-09-24T23:08:05.805Z,86.60
2022-09-24T23:10:32.386Z,87.50
2022-09-24T23:12:58.963Z,86.90
2022-09-24T23:15:25.636Z,86.80
2022-09-24T23:17:52.301Z,85.20
2022-09-24T23:20:18.904Z,85.90
2022-09-24T23:22:45.494Z,86.10
2022-09-24T23:25:12.064Z,85.40
2022-09-24T23:27:38.700Z,87.20
2022-09-24T23:30:05.574Z,86.40
2022-09-24T23:32:32.152Z,87.90
2022-09-24T23:34:58.822Z,87.70
2022-09-24T23:37:25.407Z,87.20
2022-09-24T23:39:51.966Z,87.20
2022-09-24T23:42:18.571Z,87.40
2022-09-24T23:44:45.346Z,88.80
2022-09-24T23:47:11.936Z,88.00
2022-09-24T23:49:38.513Z,87.60
2022-09-24T23:52:05.801Z,87.70
2022-09-24T23:54:32.374Z,87.60
2022-09-24T23:56:58.952Z,86.60
2022-09-24T23:59:25.538Z,86.80
